Time;durP1;ratioP1;P1;durP2;ratioP2;P2;SDS_P1;SDS_P2;PMS_P1;PMS_P2;Temp;Humidity;BMP_temperature;BMP_pressure;BME280_temperature;BME280_humidity;BME280_pressure;Samples;Min_cycle;Max_cycle;Signal;HPM_P1;HPM_P2
2021/08/08 02:47:21;;;;;;;7.05;2.20;;;;;;;20.67;44.22;99728.56;6105387;23;20126;-77
2021/08/08 02:49:59;;;;;;;6.05;2.10;;;;;;;20.66;44.38;99741.31;6158277;23;20016;-78
2021/08/08 02:52:41;;;;;;;7.80;2.00;;;;;;;20.70;44.10;99741.81;6159936;23;20039;-79
2021/08/08 02:55:45;;;;;;;9.98;2.33;;;;;;;20.75;44.29;99734.81;6163374;23;20052;-78
2021/08/08 02:58:15;;;;;;;6.95;2.25;;;;;;;20.64;44.32;99732.47;6150019;23;20031;-78
2021/08/08 03:00:54;;;;;;;7.50;2.42;;;;;;;20.56;44.50;99729.81;6139476;23;20099;-78
2021/08/08 03:03:33;;;;;;;;;;;;;;;;;;;;;
2021/08/08 03:06:18;;;;;;;7.60;2.42;;;;;;;20.58;44.67;99734.06;6139210;23;20439;-79
2021/08/08 03:09:02;;;;;;;6.28;2.05;;;;;;;20.60;44.75;99732.00;6159136;23;20098;-80
2021/08/08 03:15:42;;;;;;;10.82;2.10;;;;;;;20.85;44.49;99745.44;6183346;22;20523;-80
2021/08/08 03:18:35;;;;;;;5.63;2.05;;;;;;;20.49;45.32;99718.81;6219259;23;20026;-79
2021/08/08 03:21:21;;;;;;;8.35;2.08;;;;;;;20.46;45.52;99735.47;6135933;23;20392;-77
2021/08/08 03:24:35;;;;;;;5.10;2.00;;;;;;;20.48;45.58;99738.81;6164554;23;20016;-78
2021/08/08 03:30:21;;;;;;;4.85;2.10;;;;;;;20.48;45.44;99746.97;6139707;23;20346;-80
2021/08/08 03:33:12;;;;;;;5.35;2.45;;;;;;;20.57;45.20;99740.53;6139059;23;20099;-80
2021/08/08 03:35:55;;;;;;;7.40;2.17;;;;;;;20.58;44.97;99727.78;6136585;23;20017;-79
2021/08/08 03:38:51;;;;;;;5.95;2.00;;;;;;;20.58;45.05;99739.50;6142581;23;20347;-80
2021/08/08 03:41:36;;;;;;;;;;;;;;;;;;;;;
2021/08/08 03:44:38;;;;;;;7.45;2.00;;;;;;;20.54;45.18;99732.72;6094069;23;20023;-81
2021/08/08 03:47:07;;;;;;;6.70;2.70;;;;;;;20.60;45.10;99721.13;6092073;23;20346;-76
2021/08/08 03:50:04;;;;;;;6.65;2.22;;;;;;;20.68;45.45;99732.97;6110743;23;20034;-82
2021/08/08 03:52:46;;;;;;;4.80;2.38;;;;;;;20.77;45.17;99734.63;6063050;23;20022;-83
2021/08/08 03:55:29;;;;;;;7.97;2.25;;;;;;;20.81;44.79;99731.38;6061293;23;20064;-78
2021/08/08 03:58:46;;;;;;;5.07;2.50;;;;;;;21.02;45.08;99735.31;6058125;23;20065;-78
2021/08/08 04:01:42;;;;;;;;;;;;;;;;;;;;;
2021/08/08 04:07:32;;;;;;;6.78;2.30;;;;;;;21.05;44.74;99741.22;6029035;23;20046;-79
2021/08/08 04:10:15;;;;;;;12.32;3.00;;;;;;;21.04;44.36;99719.69;6041710;23;20022;-79
2021/08/08 04:12:49;;;;;;;10.57;2.58;;;;;;;21.22;44.12;99724.81;6054731;23;20071;-78
2021/08/08 04:15:28;;;;;;;6.40;2.20;;;;;;;21.48;44.02;99736.19;6091968;23;20018;-80
2021/08/08 04:18:16;;;;;;;6.32;2.50;;;;;;;21.73;43.29;99733.22;6096627;23;20032;-79
2021/08/08 04:21:10;;;;;;;;;;;;;;;;;;;;;
2021/08/08 04:24:25;;;;;;;4.35;2.75;;;;;;;21.80;42.64;99736.88;5972266;24;20131;-77
2021/08/08 04:27:10;;;;;;;6.22;2.47;;;;;;;21.99;42.81;99733.63;5931422;23;20027;-80
2021/08/08 04:29:40;;;;;;;6.22;2.67;;;;;;;22.15;42.17;99723.59;5974503;23;20114;-78
2021/08/08 04:32:11;;;;;;;5.90;4.00;;;;;;;22.27;42.02;99733.84;6125993;23;20017;-79
2021/08/08 04:34:58;;;;;;;7.28;2.50;;;;;;;22.18;41.47;99721.34;6168671;23;20107;-79
2021/08/08 04:37:35;;;;;;;5.72;2.67;;;;;;;22.33;41.28;99732.22;6192113;23;20026;-78
2021/08/08 04:40:07;;;;;;;3.37;2.10;;;;;;;22.22;41.18;99728.09;6190270;23;20067;-78
2021/08/08 04:42:52;;;;;;;7.32;2.63;;;;;;;22.45;41.11;99736.16;6214756;23;20039;-78
2021/08/08 04:46:12;;;;;;;;;;;;;;;;;;;;;
2021/08/08 04:50:10;;;;;;;3.90;2.15;;;;;;;22.64;40.20;99734.75;6226603;23;20490;-79
2021/08/08 04:53:01;;;;;;;3.17;1.70;;;;;;;22.71;39.50;99729.34;6221924;22;20034;-78
2021/08/08 04:56:11;;;;;;;;;;;;;;;;;;;;;
2021/08/08 04:58:54;;;;;;;5.20;1.70;;;;;;;22.77;39.26;99728.59;6232910;22;20171;-76
2021/08/08 05:01:23;;;;;;;3.58;1.98;;;;;;;22.95;39.27;99744.56;6220291;22;20102;-76
2021/08/08 05:07:40;;;;;;;5.50;2.13;;;;;;;22.90;38.93;99742.34;6156032;23;20020;-79
2021/08/08 05:10:09;;;;;;;4.60;1.60;;;;;;;23.14;37.80;99746.66;6035275;23;20152;-79
2021/08/08 05:12:44;;;;;;;5.10;1.70;;;;;;;23.08;37.54;99722.03;6000774;23;20027;-79
2021/08/08 05:15:52;;;;;;;4.97;1.67;;;;;;;23.14;37.40;99730.28;6133403;23;20121;-80
2021/08/08 05:18:24;;;;;;;5.68;2.03;;;;;;;23.20;37.65;99725.91;5999066;23;20020;-81
2021/08/08 05:21:22;;;;;;;3.67;1.60;;;;;;;23.17;37.98;99721.72;5981663;23;20102;-80
2021/08/08 05:24:20;;;;;;;;;;;;;;;;;;;;;
2021/08/08 05:26:53;;;;;;;7.25;2.10;;;;;;;23.56;37.59;99738.63;5953232;24;20079;-79
2021/08/08 05:29:24;;;;;;;8.15;2.40;;;;;;;23.72;37.23;99738.38;5928814;23;20028;-79
2021/08/08 05:32:09;;;;;;;3.60;1.83;;;;;;;23.91;36.99;99725.91;5951720;24;20078;-78
2021/08/08 05:34:53;;;;;;;;;;;;;;;;;;;;;
2021/08/08 05:37:29;;;;;;;2.55;1.75;;;;;;;23.73;35.74;99726.41;5953774;23;20096;-81
2021/08/08 05:40:04;;;;;;;3.78;1.58;;;;;;;23.83;35.34;99735.09;5963416;23;20434;-81
2021/08/08 05:42:56;;;;;;;2.63;1.70;;;;;;;23.85;35.52;99724.81;6026072;23;20058;-78
2021/08/08 05:45:25;;;;;;;3.58;1.73;;;;;;;23.80;36.15;99719.09;5991986;23;20602;-77
2021/08/08 05:47:51;;;;;;;3.95;1.60;;;;;;;23.79;36.55;99746.63;6016001;23;20504;-79
2021/08/08 05:50:38;;;;;;;;;;;;;;;;;;;;;
2021/08/08 05:53:42;;;;;;;;;;;;;;;;;;;;;
2021/08/08 05:56:59;;;;;;;4.72;1.85;;;;;;;24.23;35.03;99730.72;6061732;23;20026;-81
2021/08/08 06:00:06;;;;;;;;;;;;;;;;;;;;;
2021/08/08 06:03:54;;;;;;;7.32;2.08;;;;;;;24.37;34.50;99739.84;6060007;23;20410;-80
2021/08/08 06:07:05;;;;;;;;;;;;;;;;;;;;;
2021/08/08 06:10:37;;;;;;;1.77;1.55;;;;;;;24.53;34.09;99715.97;6060785;23;20022;-82
2021/08/08 06:13:11;;;;;;;3.50;1.48;;;;;;;24.66;34.59;99710.56;6040276;23;20022;-80
2021/08/08 06:15:52;;;;;;;;;;;;;;;;;;;;;
2021/08/08 06:18:48;;;;;;;;;;;;;;;;;;;;;
2021/08/08 06:21:39;;;;;;;1.52;1.42;;;;;;;24.70;33.71;99728.22;6046012;23;20033;-78
2021/08/08 06:24:25;;;;;;;4.75;1.50;;;;;;;24.57;33.73;99728.19;6083567;23;20022;-80
2021/08/08 06:27:16;;;;;;;;;;;;;;;;;;;;;
2021/08/08 06:29:52;;;;;;;7.78;1.65;;;;;;;24.59;33.85;99723.34;6107875;23;20033;-79
2021/08/08 06:32:58;;;;;;;9.80;1.60;;;;;;;24.39;33.73;99718.66;6124797;23;20083;-79
2021/08/08 06:35:41;;;;;;;4.93;1.60;;;;;;;24.18;34.60;99726.91;6149915;23;20047;-80
2021/08/08 06:38:20;;;;;;;5.18;1.45;;;;;;;24.22;34.41;99720.84;6080553;23;20030;-79
2021/08/08 06:41:05;;;;;;;;;;;;;;;;;;;;;
2021/08/08 06:44:28;;;;;;;10.43;1.63;;;;;;;24.72;33.70;99696.06;6147616;23;20022;-80
2021/08/08 06:47:27;;;;;;;4.30;1.40;;;;;;;24.87;33.23;99691.28;6130152;23;20029;-79
2021/08/08 06:50:07;;;;;;;4.97;1.65;;;;;;;25.13;32.97;99695.13;6130277;23;20067;-80
2021/08/08 06:52:51;;;;;;;1.60;1.50;;;;;;;25.09;33.22;99678.25;6067015;23;20022;-81
2021/08/08 06:55:32;;;;;;;5.15;1.88;;;;;;;25.25;33.22;99682.50;6022633;23;20022;-78
2021/08/08 07:02:08;;;;;;;4.13;1.55;;;;;;;25.24;32.79;99691.78;6064230;23;20484;-79
2021/08/08 07:05:12;;;;;;;2.45;1.40;;;;;;;25.21;33.20;99697.66;6120438;23;20036;-77
2021/08/08 07:08:21;;;;;;;3.92;1.58;;;;;;;25.12;32.96;99677.84;6026557;23;20068;-78
2021/08/08 07:11:07;;;;;;;24.73;11.73;;;;;;;25.06;32.70;99684.16;6066098;23;20052;-79
2021/08/08 07:14:43;;;;;;;;;;;;;;;;;;;;;
2021/08/08 07:17:19;;;;;;;5.20;1.48;;;;;;;25.60;30.96;99676.81;6005687;23;20023;-78
2021/08/08 07:20:09;;;;;;;1.50;1.40;;;;;;;25.91;30.97;99677.03;5986980;23;20031;-80
2021/08/08 07:22:52;;;;;;;2.55;1.70;;;;;;;25.76;31.20;99686.47;5989047;23;20063;-78
2021/08/08 07:25:30;;;;;;;3.03;1.55;;;;;;;25.79;31.55;99667.75;6044597;23;20564;-81
2021/08/08 07:28:12;;;;;;;4.15;1.50;;;;;;;25.70;31.60;99663.53;5992859;23;20026;-81
2021/08/08 07:31:24;;;;;;;1.70;1.60;;;;;;;25.84;31.22;99658.88;6018270;23;20018;-81
2021/08/08 07:34:18;;;;;;;3.22;1.63;;;;;;;26.03;30.18;99657.19;6180468;23;20025;-79
2021/08/08 07:37:08;;;;;;;1.55;1.45;;;;;;;26.06;29.72;99660.31;6135442;23;20456;-80
2021/08/08 07:39:42;;;;;;;3.03;1.50;;;;;;;25.95;29.62;99671.09;6165047;23;20025;-79
2021/08/08 07:42:10;;;;;;;2.60;1.70;;;;;;;25.96;29.90;99672.78;6136573;23;20456;-81
2021/08/08 07:44:48;;;;;;;2.53;1.50;;;;;;;26.04;29.78;99680.78;6139548;23;20013;-81
2021/08/08 07:47:16;;;;;;;;;;;;;;;26.10;29.59;99683.50;6194902;22;20022;-80
2021/08/08 07:49:47;;;;;;;1.88;1.40;;;;;;;26.03;30.01;99685.41;6171166;22;19926;-80
2021/08/08 07:52:19;;;;;;;6.35;1.50;;;;;;;26.08;29.76;99687.50;6219661;22;20497;-83
2021/08/08 07:54:59;;;;;;;1.33;1.20;;;;;;;25.84;29.86;99664.38;6220878;22;20102;-80
2021/08/08 07:57:36;;;;;;;3.45;1.30;;;;;;;26.01;29.83;99683.94;6226381;22;20098;-80
2021/08/08 08:01:00;;;;;;;2.42;1.40;;;;;;;25.96;30.01;99667.31;6180145;23;20100;-79
2021/08/08 08:04:29;;;;;;;3.88;1.40;;;;;;;26.29;29.41;99673.53;6142137;23;20017;-80
2021/08/08 08:08:43;;;;;;;;;;;;;;;;;;;;;
2021/08/08 08:11:54;;;;;;;5.20;1.80;;;;;;;26.37;29.22;99654.09;5983140;23;20024;-78
2021/08/08 08:17:28;;;;;;;5.57;1.77;;;;;;;26.49;27.90;99667.13;6070315;23;20395;-82
2021/08/08 08:19:56;;;;;;;2.78;2.00;;;;;;;26.68;27.85;99648.91;5994110;23;20025;-80
2021/08/08 08:22:24;;;;;;;6.18;1.73;;;;;;;26.68;28.17;99671.66;5936926;23;20023;-81
2021/08/08 08:24:55;;;;;;;5.10;1.75;;;;;;;26.54;28.75;99648.97;5959697;23;20019;-79
2021/08/08 08:27:24;;;;;;;2.10;1.73;;;;;;;26.94;28.46;99664.34;5959955;23;20027;-81
2021/08/08 08:29:52;;;;;;;5.22;1.83;;;;;;;26.90;27.47;99657.63;5959986;23;20122;-77
2021/08/08 08:32:18;;;;;;;4.88;1.70;;;;;;;26.93;27.93;99632.47;6007757;23;20026;-78
2021/08/08 08:34:47;;;;;;;5.20;1.88;;;;;;;27.28;26.90;99650.19;5987766;23;20459;-81
2021/08/08 08:37:20;;;;;;;1.95;1.70;;;;;;;27.18;26.83;99659.97;5982511;23;20026;-78
2021/08/08 08:39:47;;;;;;;3.92;1.52;;;;;;;27.08;26.64;99652.19;5961994;23;20023;-79
2021/08/08 08:42:15;;;;;;;4.45;1.58;;;;;;;27.04;26.90;99635.38;5982967;23;20046;-79
2021/08/08 08:45:00;;;;;;;2.42;1.58;;;;;;;27.02;27.00;99658.59;5984084;23;20023;-80
2021/08/08 08:47:28;;;;;;;1.60;1.50;;;;;;;27.22;27.07;99634.59;5985754;23;20379;-81
2021/08/08 08:50:04;;;;;;;28.23;18.27;;;;;;;27.66;26.43;99640.13;6076801;23;20060;-79
2021/08/08 08:52:37;;;;;;;2.28;1.50;;;;;;;27.56;26.17;99646.13;6108171;23;20017;-79
2021/08/08 08:55:07;;;;;;;1.70;1.60;;;;;;;27.90;25.27;99624.66;6107331;23;20025;-79
2021/08/08 08:57:39;;;;;;;2.10;1.45;;;;;;;27.85;25.29;99630.84;6133103;23;20017;-80
2021/08/08 09:00:07;;;;;;;5.60;1.40;;;;;;;27.81;24.84;99624.97;6147804;22;20028;-78
2021/08/08 09:02:35;;;;;;;4.32;1.65;;;;;;;27.94;25.33;99626.72;6220059;22;20050;-77
2021/08/08 09:05:03;;;;;;;7.90;1.98;;;;;;;28.38;24.78;99629.41;6195075;22;20106;-77
2021/08/08 09:07:30;;;;;;;2.87;1.97;;;;;;;28.17;24.45;99631.53;6194608;22;20016;-79
2021/08/08 09:10:05;;;;;;;3.97;1.77;;;;;;;28.26;23.44;99646.63;6220929;22;20114;-80
2021/08/08 09:12:35;;;;;;;2.88;1.70;;;;;;;28.08;23.87;99613.69;6222437;22;20023;-81
2021/08/08 09:15:05;;;;;;;3.35;1.65;;;;;;;28.20;24.21;99625.56;6194809;22;20027;-78
2021/08/08 09:17:39;;;;;;;3.33;1.70;;;;;;;28.17;24.45;99637.03;6173163;22;20066;-80
2021/08/08 09:20:11;;;;;;;2.63;1.40;;;;;;;28.41;24.19;99649.03;6220063;22;20024;-78
2021/08/08 09:22:42;;;;;;;6.45;1.67;;;;;;;28.69;24.36;99637.41;6221271;22;20095;-80
2021/08/08 09:25:21;;;;;;;5.47;1.92;;;;;;;28.94;24.42;99631.75;6194471;22;20027;-76
2021/08/08 09:28:11;;;;;;;7.15;2.17;;;;;;;28.78;24.79;99619.50;6243247;22;20101;-80
2021/08/08 09:30:38;;;;;;;1.75;1.55;;;;;;;29.28;24.06;99616.41;6196143;22;20022;-80
2021/08/08 09:33:07;;;;;;;6.15;1.55;;;;;;;29.38;23.74;99612.22;6196695;22;20023;-76
2021/08/08 09:35:40;;;;;;;5.88;2.80;;;;;;;29.44;23.19;99603.00;6222307;22;20077;-79
2021/08/08 09:38:08;;;;;;;4.10;1.70;;;;;;;29.33;23.07;99618.44;6247385;22;20019;-78
2021/08/08 09:40:39;;;;;;;7.25;1.50;;;;;;;29.43;23.32;99612.34;6171738;22;20555;-78
2021/08/08 09:43:06;;;;;;;5.22;1.50;;;;;;;29.29;22.69;99604.28;6221626;22;20020;-78
2021/08/08 09:46:12;;;;;;;2.42;1.77;;;;;;;29.06;22.89;99617.22;6221448;22;20106;-81
2021/08/08 09:49:14;;;;;;;2.95;1.40;;;;;;;28.87;23.30;99610.91;6209014;23;20063;-78
2021/08/08 09:52:12;;;;;;;;;;;;;;;;;;;;;
2021/08/08 09:54:58;;;;;;;4.03;1.70;;;;;;;29.43;23.24;99599.41;6237372;23;20012;-79
2021/08/08 09:57:39;;;;;;;;;;;;;;;29.70;22.12;99615.47;6211225;23;20111;-79
2021/08/08 10:00:08;;;;;;;6.03;1.50;;;;;;;29.80;22.13;99601.09;6239440;23;19922;-78
2021/08/08 10:02:44;;;;;;;2.33;1.33;;;;;;;30.48;22.70;99603.91;6213727;23;20020;-79
2021/08/08 10:05:12;;;;;;;3.80;1.50;;;;;;;31.00;22.38;99605.69;6239906;23;20019;-80
2021/08/08 10:07:38;;;;;;;6.65;1.80;;;;;;;30.90;22.09;99594.47;6188372;23;20020;-77
2021/08/08 10:10:08;;;;;;;6.20;1.90;;;;;;;30.85;22.26;99614.53;6213986;23;20099;-78
2021/08/08 10:12:42;;;;;;;2.10;1.42;;;;;;;30.57;20.68;99596.06;6189218;23;20024;-78
2021/08/08 10:15:11;;;;;;;2.35;1.50;;;;;;;31.00;21.18;99610.38;6241195;23;20026;-78
2021/08/08 10:17:39;;;;;;;13.32;1.70;;;;;;;31.35;20.73;99623.97;6190771;23;20094;-80
2021/08/08 10:20:31;;;;;;;5.33;1.60;;;;;;;31.09;20.88;99609.69;6241720;23;20026;-79
2021/08/08 10:22:56;;;;;;;6.93;1.52;;;;;;;31.21;21.08;99593.88;6163367;23;20017;-76
2021/08/08 10:25:26;;;;;;;7.88;1.50;;;;;;;31.48;20.68;99612.53;6124440;23;20067;-79
2021/08/08 10:27:53;;;;;;;4.32;1.40;;;;;;;31.57;20.41;99605.53;6124457;23;20411;-78
2021/08/08 10:30:23;;;;;;;5.47;1.55;;;;;;;32.25;20.37;99630.22;6125431;23;20021;-80
2021/08/08 10:32:50;;;;;;;1.42;1.33;;;;;;;32.20;17.69;99610.78;6127896;23;20086;-79
2021/08/08 10:35:17;;;;;;;5.45;1.85;;;;;;;32.33;18.28;99613.16;6226039;23;20143;-79
2021/08/08 10:37:47;;;;;;;4.28;1.63;;;;;;;32.44;18.31;99609.47;6220385;22;20331;-77
2021/08/08 10:40:25;;;;;;;2.58;1.58;;;;;;;32.27;17.87;99616.97;6221089;22;20022;-80
2021/08/08 10:43:00;;;;;;;1.60;1.50;;;;;;;32.08;18.59;99610.91;6198832;22;20028;-79
2021/08/08 10:45:34;;;;;;;2.65;1.40;;;;;;;32.36;18.58;99629.25;6221785;22;20023;-79
2021/08/08 10:48:10;;;;;;;3.45;1.20;;;;;;;32.53;18.49;99613.41;6246706;22;20501;-79
2021/08/08 10:50:41;;;;;;;5.18;1.50;;;;;;;32.30;18.71;99613.69;6245967;22;20023;-80
2021/08/08 10:53:20;;;;;;;8.32;1.35;;;;;;;32.61;18.56;99590.84;6246059;22;20441;-79
2021/08/08 10:55:47;;;;;;;5.35;2.25;;;;;;;33.35;18.26;99597.56;6248669;22;20570;-77
2021/08/08 10:58:15;;;;;;;4.90;1.50;;;;;;;33.64;17.80;99605.56;6223431;22;20019;-77
2021/08/08 11:00:41;;;;;;;2.20;1.30;;;;;;;32.86;18.17;99619.84;6274201;22;20055;-77
2021/08/08 11:03:17;;;;;;;4.35;1.40;;;;;;;33.18;18.29;99621.84;6248797;22;20023;-79
2021/08/08 11:05:44;;;;;;;3.25;1.38;;;;;;;33.01;17.87;99606.16;6223370;22;20041;-78
2021/08/08 11:08:12;;;;;;;2.00;1.45;;;;;;;33.40;17.61;99597.63;6223224;22;20102;-80
2021/08/08 11:10:42;;;;;;;1.90;1.00;;;;;;;33.06;17.89;99600.69;6248883;22;20396;-78
2021/08/08 11:13:26;;;;;;;1.45;1.30;;;;;;;33.45;17.75;99600.41;6249873;22;20500;-77
2021/08/08 11:15:52;;;;;;;4.65;1.27;;;;;;;33.55;17.55;99602.44;6174888;22;20028;-77
2021/08/08 11:18:28;;;;;;;4.60;1.30;;;;;;;34.10;17.17;99597.50;6125354;23;20027;-77
2021/08/08 11:20:54;;;;;;;2.28;1.20;;;;;;;34.27;16.93;99603.69;6150323;23;20017;-77
2021/08/08 11:23:28;;;;;;;5.30;1.45;;;;;;;34.30;16.87;99603.97;6125567;23;20025;-77
2021/08/08 11:25:55;;;;;;;1.80;1.20;;;;;;;34.28;16.60;99606.16;6125859;23;20021;-76
2021/08/08 11:28:21;;;;;;;4.10;1.35;;;;;;;34.39;15.72;99607.03;6150129;23;20013;-77
2021/08/08 11:30:47;;;;;;;1.25;1.15;;;;;;;34.76;14.52;99617.16;6149820;23;20028;-80
2021/08/08 11:33:14;;;;;;;2.10;1.30;;;;;;;35.26;14.66;99607.19;6149877;23;20108;-78
2021/08/08 11:35:43;;;;;;;1.20;1.10;;;;;;;34.64;14.04;99611.84;6125014;23;20070;-79
2021/08/08 11:38:24;;;;;;;3.05;1.20;;;;;;;35.08;14.44;99599.41;6149956;23;20021;-78
2021/08/08 11:40:50;;;;;;;7.82;1.20;;;;;;;35.23;14.15;99611.34;6127585;23;20025;-78
2021/08/08 11:43:16;;;;;;;2.88;1.20;;;;;;;35.35;13.94;99607.44;6125681;23;20024;-78
2021/08/08 11:45:44;;;;;;;1.40;1.30;;;;;;;35.63;13.71;99594.94;6150267;23;20067;-77
2021/08/08 11:48:11;;;;;;;6.95;1.10;;;;;;;35.69;13.99;99608.53;6125777;23;20013;-78
2021/08/08 11:50:37;;;;;;;3.38;1.30;;;;;;;35.15;14.58;99592.47;6123879;23;20025;-79
2021/08/08 11:53:05;;;;;;;1.50;1.38;;;;;;;35.30;13.93;99610.25;6150072;23;20033;-79
2021/08/08 11:55:31;;;;;;;3.72;1.48;;;;;;;35.36;14.45;99618.31;6149828;23;20356;-76
2021/08/08 11:58:05;;;;;;;6.32;1.38;;;;;;;35.78;14.46;99619.94;6150443;23;20079;-77
2021/08/08 12:00:31;;;;;;;3.10;1.25;;;;;;;35.48;14.51;99607.72;6101543;23;20082;-77
2021/08/08 12:02:57;;;;;;;1.30;1.10;;;;;;;35.86;14.52;99611.00;6125055;23;20454;-77
2021/08/08 12:05:24;;;;;;;3.78;1.15;;;;;;;36.32;13.49;99610.00;6125372;23;20105;-77
2021/08/08 12:07:50;;;;;;;2.40;1.27;;;;;;;36.27;12.93;99608.09;6150058;23;20021;-78
2021/08/08 12:10:30;;;;;;;4.20;1.27;;;;;;;36.57;13.24;99615.47;6149486;23;20096;-77
2021/08/08 12:12:56;;;;;;;1.67;1.08;;;;;;;36.40;13.15;99604.66;6149254;23;20021;-78
2021/08/08 12:15:37;;;;;;;2.42;1.20;;;;;;;37.01;12.45;99620.19;6124958;23;20020;-78
2021/08/08 12:18:04;;;;;;;5.97;1.45;;;;;;;35.97;13.51;99603.44;6149714;23;20017;-77
2021/08/08 12:20:36;;;;;;;1.38;1.10;;;;;;;35.35;13.90;99596.34;6124431;23;20029;-77
2021/08/08 12:23:07;;;;;;;8.95;1.30;;;;;;;35.11;14.43;99604.41;6124774;23;20360;-77
2021/08/08 12:25:33;;;;;;;3.17;1.30;;;;;;;35.81;14.00;99608.25;6151556;23;20025;-79
2021/08/08 12:27:59;;;;;;;1.63;1.15;;;;;;;36.59;13.48;99596.50;6173991;23;20180;-79
2021/08/08 12:30:27;;;;;;;6.13;1.35;;;;;;;37.02;13.29;99605.16;6149656;23;20151;-77
2021/08/08 12:33:02;;;;;;;3.83;1.50;;;;;;;37.15;13.61;99606.41;6125440;23;20022;-78
2021/08/08 12:35:33;;;;;;;4.18;1.45;;;;;;;36.47;13.82;99608.00;6174221;23;20124;-78
2021/08/08 12:38:14;;;;;;;3.22;1.20;;;;;;;36.76;13.66;99615.63;6100583;23;20048;-78
2021/08/08 12:40:52;;;;;;;2.92;1.30;;;;;;;37.10;13.57;99610.09;6126396;23;20124;-81
2021/08/08 12:43:30;;;;;;;4.65;1.45;;;;;;;37.03;13.51;99603.19;6146894;23;20050;-79
2021/08/08 12:45:56;;;;;;;;;;;;;;;37.36;13.00;99612.66;6227074;22;20024;-79
2021/08/08 12:48:29;;;;;;;1.83;1.50;;;;;;;37.51;13.19;99603.34;6099002;23;19962;-83
2021/08/08 12:50:58;;;;;;;2.53;1.30;;;;;;;37.34;13.02;99621.31;6051311;23;20464;-80
2021/08/08 12:53:25;;;;;;;1.73;1.33;;;;;;;37.40;12.97;99611.78;6075704;23;20014;-79
2021/08/08 12:55:56;;;;;;;;;;;;;;;37.58;13.10;99615.81;6075601;23;20014;-79
2021/08/08 12:58:22;;;;;;;6.18;1.50;;;;;;;38.26;12.83;99600.81;6148994;23;19917;-79
2021/08/08 13:00:50;;;;;;;4.50;1.52;;;;;;;38.77;12.44;99605.66;6074597;23;20120;-78
2021/08/08 13:03:17;;;;;;;5.68;1.50;;;;;;;39.27;12.05;99619.16;6123879;23;20013;-78
2021/08/08 13:05:45;;;;;;;11.85;1.52;;;;;;;39.34;11.62;99606.47;6147783;23;20018;-81
2021/08/08 13:08:12;;;;;;;5.35;1.70;;;;;;;38.58;12.12;99607.63;6075652;23;20021;-78
2021/08/08 13:10:38;;;;;;;3.33;1.20;;;;;;;38.57;12.25;99606.00;6098392;23;20057;-80
2021/08/08 13:13:07;;;;;;;1.73;1.30;;;;;;;38.90;12.12;99600.50;6098825;23;20045;-80
2021/08/08 13:15:46;;;;;;;10.43;1.52;;;;;;;38.94;12.38;99601.53;6098430;23;20025;-79
2021/08/08 13:18:34;;;;;;;3.25;1.10;;;;;;;39.26;11.98;99606.31;6110047;23;20033;-79
2021/08/08 13:21:03;;;;;;;3.17;1.30;;;;;;;38.98;11.95;99605.38;6098918;23;20025;-78
2021/08/08 13:23:33;;;;;;;3.90;1.30;;;;;;;38.34;12.28;99599.34;6098246;23;20025;-78
2021/08/08 13:26:06;;;;;;;3.55;1.55;;;;;;;38.55;12.67;99613.81;6122920;23;20017;-79
2021/08/08 13:28:32;;;;;;;3.28;1.50;;;;;;;38.42;12.42;99595.88;6057424;23;20051;-77
2021/08/08 13:30:59;;;;;;;4.43;1.27;;;;;;;37.80;12.82;99606.94;6125680;23;20025;-80
2021/08/08 13:33:25;;;;;;;4.10;1.48;;;;;;;37.66;12.98;99600.38;6098200;23;20021;-81
2021/08/08 13:35:55;;;;;;;6.93;1.45;;;;;;;38.01;13.04;99603.91;6072670;23;20018;-78
2021/08/08 13:38:26;;;;;;;7.25;1.10;;;;;;;37.47;13.02;99619.00;6098299;23;20071;-80
2021/08/08 13:40:52;;;;;;;5.85;1.30;;;;;;;37.57;13.29;99585.41;6096828;23;20021;-79
2021/08/08 13:43:18;;;;;;;5.53;1.38;;;;;;;37.94;13.04;99600.66;6096207;23;20385;-79
2021/08/08 13:45:45;;;;;;;4.65;1.63;;;;;;;38.18;12.97;99601.47;6024960;23;20013;-78
2021/08/08 13:48:16;;;;;;;5.13;1.52;;;;;;;37.56;12.75;99597.69;6121217;23;20112;-79
2021/08/08 13:50:42;;;;;;;5.10;1.40;;;;;;;37.30;12.93;99606.28;6097757;23;20025;-79
2021/08/08 13:53:13;;;;;;;1.98;1.23;;;;;;;37.42;13.02;99594.75;6174744;23;20521;-80
2021/08/08 13:55:42;;;;;;;3.42;1.30;;;;;;;37.15;13.14;99596.09;6073605;23;20107;-78
2021/08/08 13:58:08;;;;;;;4.28;1.40;;;;;;;37.21;13.40;99599.69;6073721;23;20109;-77
2021/08/08 14:00:36;;;;;;;4.32;1.60;;;;;;;37.30;13.25;99613.81;6097427;23;20644;-78
2021/08/08 14:03:25;;;;;;;4.28;1.63;;;;;;;36.92;13.11;99625.53;6097130;23;20029;-78
2021/08/08 14:05:56;;;;;;;3.55;1.23;;;;;;;36.97;13.22;99596.81;6073351;23;20055;-80
2021/08/08 14:08:34;;;;;;;2.03;1.40;;;;;;;36.40;13.72;99601.88;6103548;23;20083;-80
2021/08/08 14:11:12;;;;;;;3.03;1.55;;;;;;;36.26;13.77;99608.34;6052667;23;20079;-78
2021/08/08 14:13:42;;;;;;;6.10;1.83;;;;;;;36.35;14.03;99599.13;6123351;23;20078;-80
2021/08/08 14:16:09;;;;;;;1.42;1.30;;;;;;;36.88;13.85;99596.59;6147807;23;20018;-79
2021/08/08 14:18:37;;;;;;;3.88;1.50;;;;;;;36.71;13.82;99624.00;6051951;23;20021;-79
2021/08/08 14:21:04;;;;;;;3.20;1.92;;;;;;;37.14;13.86;99616.75;6051347;23;20029;-79
2021/08/08 14:23:40;;;;;;;5.45;2.63;;;;;;;37.49;13.68;99605.59;6200325;23;20032;-78
2021/08/08 14:26:22;;;;;;;5.45;2.28;;;;;;;37.04;13.67;99605.66;6075743;23;20055;-79
2021/08/08 14:29:23;;;;;;;7.65;2.60;;;;;;;35.61;14.85;99602.72;6047722;23;20600;-78
2021/08/08 14:31:58;;;;;;;7.43;2.85;;;;;;;35.39;15.32;99617.72;6098717;23;20021;-79
2021/08/08 14:34:29;;;;;;;6.10;2.28;;;;;;;35.37;15.44;99606.06;6101303;23;20421;-80
2021/08/08 14:37:21;;;;;;;5.03;2.05;;;;;;;34.25;16.58;99606.69;6091801;23;20026;-78
2021/08/08 14:39:52;;;;;;;3.92;2.05;;;;;;;34.12;16.79;99623.03;6068892;23;20097;-79
2021/08/08 14:42:25;;;;;;;19.60;2.90;;;;;;;34.49;16.27;99606.22;6116262;23;20612;-76
2021/08/08 14:45:10;;;;;;;6.22;2.60;;;;;;;34.90;15.89;99618.25;6064768;23;20052;-79
2021/08/08 14:48:03;;;;;;;7.53;3.45;;;;;;;34.67;16.35;99627.13;6054663;23;20082;-79
2021/08/08 14:50:34;;;;;;;5.80;2.22;;;;;;;34.32;16.75;99626.72;6073681;23;20459;-79
2021/08/08 14:53:05;;;;;;;6.35;3.15;;;;;;;33.73;17.45;99637.22;6134378;23;20551;-78
2021/08/08 14:55:39;;;;;;;5.75;2.80;;;;;;;33.83;17.39;99635.34;6041300;23;20018;-79
2021/08/08 14:58:07;;;;;;;4.15;2.47;;;;;;;33.73;17.21;99624.19;6063251;23;20025;-78
2021/08/08 15:00:41;;;;;;;5.38;2.65;;;;;;;33.47;17.58;99639.81;6015734;23;20038;-81
2021/08/08 15:03:25;;;;;;;4.32;2.15;;;;;;;33.16;17.71;99632.34;6042479;23;20050;-79
2021/08/08 15:06:55;;;;;;;8.93;2.92;;;;;;;32.85;17.99;99637.56;6067114;23;20030;-80
2021/08/08 15:09:33;;;;;;;8.65;1.98;;;;;;;32.44;18.29;99630.75;6030486;23;20116;-77
2021/08/08 15:12:12;;;;;;;8.95;3.22;;;;;;;32.30;18.60;99644.13;6122492;23;20492;-80
2021/08/08 15:14:44;;;;;;;4.93;3.25;;;;;;;32.00;18.83;99642.63;6122953;23;20029;-80
2021/08/08 15:17:21;;;;;;;9.95;2.90;;;;;;;31.34;19.53;99644.41;6099768;23;20022;-79
2021/08/08 15:20:00;;;;;;;6.13;3.20;;;;;;;31.53;19.64;99644.97;6100412;23;20018;-79
2021/08/08 15:22:44;;;;;;;5.55;2.33;;;;;;;30.93;20.08;99657.47;6045558;23;20064;-80
2021/08/08 15:25:18;;;;;;;6.93;1.83;;;;;;;29.83;21.16;99641.94;6068521;23;20022;-80
2021/08/08 15:28:03;;;;;;;11.35;3.00;;;;;;;28.87;22.22;99664.03;6077466;23;20037;-80
2021/08/08 15:30:56;;;;;;;2.70;2.10;;;;;;;28.07;23.13;99655.97;6071684;23;20072;-80
2021/08/08 15:34:18;;;;;;;;;;;;;;;;;;;;;
2021/08/08 15:37:14;;;;;;;9.43;2.42;;;;;;;26.86;24.39;99677.25;6091751;23;20061;-80
2021/08/08 15:40:10;;;;;;;6.53;3.55;;;;;;;26.35;25.86;99677.28;6098623;23;20017;-80
2021/08/08 15:42:43;;;;;;;4.55;1.92;;;;;;;26.10;25.98;99679.88;6084712;23;20441;-78
2021/08/08 15:45:28;;;;;;;;;;;;;;;;;;;;;
2021/08/08 15:48:06;;;;;;;8.07;2.60;;;;;;;25.52;27.09;99666.94;6073761;23;20041;-81
2021/08/08 15:50:59;;;;;;;;;;;;;;;;;;;;;
2021/08/08 15:54:34;;;;;;;4.78;2.20;;;;;;;25.23;27.55;99679.13;6068032;23;20023;-80
2021/08/08 15:57:01;;;;;;;7.30;2.45;;;;;;;25.12;27.86;99702.47;6013097;23;20371;-79
2021/08/08 15:59:27;;;;;;;9.43;1.90;;;;;;;24.91;28.25;99687.06;5987576;23;20018;-78
2021/08/08 16:02:04;;;;;;;6.70;2.25;;;;;;;24.73;28.46;99699.66;6012401;23;20458;-79
2021/08/08 16:04:42;;;;;;;6.93;2.55;;;;;;;24.59;29.37;99696.00;6103208;23;20350;-80
2021/08/08 16:07:33;;;;;;;10.70;2.50;;;;;;;24.52;29.48;99714.28;6055934;23;20030;-81
2021/08/08 16:10:06;;;;;;;7.28;2.13;;;;;;;24.25;30.00;99714.13;6124641;23;20897;-79